createdAt,value
2018-08-11T00:00:11.582Z,2.63
2018-08-11T00:03:15.162Z,2.43
2018-08-11T00:06:19.866Z,2.27
2018-08-11T00:09:23.447Z,2.30
2018-08-11T00:12:27.005Z,2.23
2018-08-11T00:15:30.780Z,2.43
2018-08-11T00:18:34.336Z,2.13
2018-08-11T00:21:37.928Z,2.83
2018-08-11T00:24:43.563Z,2.40
2018-08-11T00:27:47.087Z,2.83
2018-08-11T00:30:50.725Z,2.37
2018-08-11T00:33:56.259Z,2.60
2018-08-11T00:36:59.769Z,2.40
2018-08-11T00:40:03.363Z,2.50
2018-08-11T00:43:06.960Z,2.10
2018-08-11T00:46:10.549Z,2.53
2018-08-11T00:49:14.177Z,2.60
2018-08-11T00:52:17.699Z,2.30
2018-08-11T00:55:22.282Z,2.57
2018-08-11T00:58:25.792Z,5.80
2018-08-11T01:01:29.384Z,5.00
2018-08-11T01:04:34.037Z,7.43
2018-08-11T01:07:37.924Z,5.63
2018-08-11T01:10:41.518Z,13.20
2018-08-11T01:13:45.145Z,5.80
2018-08-11T01:16:48.712Z,3.07
2018-08-11T01:19:52.336Z,2.70
2018-08-11T01:22:55.930Z,2.90
2018-08-11T01:25:59.508Z,2.30
2018-08-11T01:29:03.041Z,6.80
2018-08-11T01:32:06.556Z,6.33
2018-08-11T01:35:10.925Z,7.10
2018-08-11T01:38:14.480Z,8.50
2018-08-11T01:41:18.062Z,2.97
2018-08-11T01:44:21.648Z,8.73
2018-08-11T01:47:25.179Z,5.00
2018-08-11T01:50:28.762Z,6.43
2018-08-11T01:53:32.284Z,4.07
2018-08-11T01:56:35.840Z,3.03
2018-08-11T01:59:39.472Z,3.07
2018-08-11T02:02:43.134Z,5.50
2018-08-11T02:05:46.727Z,3.67
2018-08-11T02:08:50.292Z,5.13
2018-08-11T02:11:53.877Z,3.10
2018-08-11T02:14:57.537Z,4.60
2018-08-11T02:18:01.089Z,3.30
2018-08-11T02:21:04.681Z,3.10
2018-08-11T02:24:08.474Z,2.60
2018-08-11T02:27:12.021Z,3.07
2018-08-11T02:30:17.729Z,2.80
2018-08-11T02:33:21.255Z,4.07
2018-08-11T02:36:24.916Z,3.10
2018-08-11T02:39:28.441Z,4.50
2018-08-11T02:42:32.027Z,6.23
2018-08-11T02:45:36.645Z,4.37
2018-08-11T02:48:40.177Z,3.47
2018-08-11T02:51:43.724Z,3.27
2018-08-11T02:54:47.280Z,3.23
2018-08-11T02:57:50.874Z,3.50
2018-08-11T03:00:54.426Z,2.70
2018-08-11T03:03:57.984Z,2.97
2018-08-11T03:07:03.624Z,2.90
2018-08-11T03:10:08.660Z,2.70
2018-08-11T03:13:12.237Z,2.90
2018-08-11T03:16:15.871Z,3.00
2018-08-11T03:19:19.465Z,3.03
2018-08-11T03:22:23.049Z,2.97
2018-08-11T03:25:26.571Z,2.90
2018-08-11T03:28:30.191Z,3.03
2018-08-11T03:31:33.787Z,3.07
2018-08-11T03:34:37.305Z,3.23
2018-08-11T03:37:40.859Z,3.03
2018-08-11T03:40:44.416Z,3.40
2018-08-11T03:43:47.933Z,3.63
2018-08-11T03:46:51.491Z,2.90
2018-08-11T03:49:55.090Z,2.93
2018-08-11T03:52:58.709Z,3.17
2018-08-11T03:56:02.227Z,3.07
2018-08-11T03:59:05.904Z,3.10
2018-08-11T04:02:12.488Z,3.20
2018-08-11T04:05:16.048Z,4.00
2018-08-11T04:08:19.673Z,3.27
2018-08-11T04:11:23.311Z,3.37
2018-08-11T04:14:26.898Z,3.53
2018-08-11T04:17:34.850Z,2.97
2018-08-11T04:20:39.400Z,3.60
2018-08-11T04:23:42.951Z,3.17
2018-08-11T04:26:46.472Z,3.40
2018-08-11T04:29:52.045Z,3.07
2018-08-11T04:32:55.596Z,3.57
2018-08-11T04:35:59.110Z,3.53
2018-08-11T04:39:03.695Z,3.33
2018-08-11T04:42:07.225Z,3.33
2018-08-11T04:45:10.678Z,3.23
2018-08-11T04:48:14.199Z,3.27
2018-08-11T04:51:17.727Z,3.53
2018-08-11T04:54:21.409Z,3.00
2018-08-11T04:57:24.960Z,3.07
2018-08-11T05:00:28.436Z,3.40
2018-08-11T05:03:31.915Z,3.67
2018-08-11T05:06:35.416Z,3.40
2018-08-11T05:09:39.932Z,3.47
2018-08-11T05:12:43.440Z,3.23
2018-08-11T05:15:46.944Z,3.07
2018-08-11T05:18:50.429Z,2.93
2018-08-11T05:21:53.942Z,3.70
2018-08-11T05:24:58.981Z,3.40
2018-08-11T05:28:03.520Z,3.20
2018-08-11T05:31:07.083Z,3.23
2018-08-11T05:34:10.608Z,3.10
2018-08-11T05:37:15.281Z,2.80
2018-08-11T05:40:20.796Z,3.07
2018-08-11T05:46:33.369Z,2.80
2018-08-11T05:49:37.103Z,2.73
2018-08-11T05:52:40.687Z,2.63
2018-08-11T05:55:44.202Z,2.70
2018-08-11T05:58:47.691Z,3.00
2018-08-11T06:01:52.224Z,2.60
2018-08-11T06:04:55.719Z,2.90
2018-08-11T06:08:00.169Z,2.47
2018-08-11T06:11:03.795Z,3.00
2018-08-11T06:14:07.988Z,9.23
2018-08-11T06:17:11.464Z,7.20
2018-08-11T06:20:15.253Z,7.87
2018-08-11T06:23:18.777Z,2.70
2018-08-11T06:26:22.461Z,2.23
2018-08-11T06:29:27.200Z,2.50
2018-08-11T06:32:30.903Z,2.60
2018-08-11T06:35:34.459Z,2.37
2018-08-11T06:38:37.994Z,2.67
2018-08-11T06:41:42.831Z,2.47
2018-08-11T06:44:46.301Z,5.33
2018-08-11T06:47:50.140Z,3.43
2018-08-11T06:50:54.640Z,2.27
2018-08-11T06:53:58.124Z,2.40
2018-08-11T06:57:01.610Z,2.43
2018-08-11T07:00:05.519Z,2.17
2018-08-11T07:03:11.107Z,2.40
2018-08-11T07:06:14.718Z,2.00
2018-08-11T07:09:18.327Z,2.40
2018-08-11T07:12:21.987Z,2.63
2018-08-11T07:15:26.587Z,2.40
2018-08-11T07:18:30.303Z,3.70
2018-08-11T07:21:34.944Z,2.60
2018-08-11T07:24:38.515Z,2.43
2018-08-11T07:27:43.180Z,5.87
2018-08-11T07:30:46.777Z,3.07
2018-08-11T07:33:50.365Z,2.90
2018-08-11T07:36:53.992Z,3.40
2018-08-11T07:39:57.660Z,2.50
2018-08-11T07:43:01.298Z,2.40
2018-08-11T07:46:04.935Z,2.50
2018-08-11T07:49:11.883Z,2.40
2018-08-11T07:52:15.897Z,2.50
2018-08-11T07:55:19.536Z,2.40
2018-08-11T07:58:24.357Z,2.10
2018-08-11T08:01:29.214Z,2.60
2018-08-11T08:04:32.771Z,2.27
2018-08-11T08:07:36.512Z,2.83
2018-08-11T08:10:40.853Z,2.43
2018-08-11T08:13:45.604Z,2.17
2018-08-11T08:16:49.128Z,1.90
2018-08-11T08:19:52.783Z,2.13
2018-08-11T08:22:56.342Z,2.13
2018-08-11T08:26:00.090Z,2.40
2018-08-11T08:29:04.592Z,2.50
2018-08-11T08:32:10.462Z,3.20
2018-08-11T08:35:14.133Z,7.60
2018-08-11T08:38:17.828Z,2.70
2018-08-11T08:41:21.449Z,2.67
2018-08-11T08:44:25.009Z,2.70
2018-08-11T08:47:31.607Z,3.07
2018-08-11T08:50:35.354Z,2.10
2018-08-11T08:53:39.948Z,2.10
2018-08-11T08:56:43.553Z,1.53
2018-08-11T08:59:47.163Z,2.07
2018-08-11T09:02:51.011Z,1.70
2018-08-11T09:05:54.688Z,1.80
2018-08-11T09:08:58.300Z,2.10
2018-08-11T09:12:03.002Z,2.13
2018-08-11T09:15:07.351Z,1.80
2018-08-11T09:18:10.918Z,1.90
2018-08-11T09:21:14.541Z,2.10
2018-08-11T09:24:18.263Z,1.70
2018-08-11T09:27:21.836Z,1.83
2018-08-11T09:30:25.461Z,1.97
2018-08-11T09:33:29.144Z,3.67
2018-08-11T09:36:32.901Z,2.47
2018-08-11T09:39:36.551Z,1.70
2018-08-11T09:42:46.735Z,2.33
2018-08-11T09:45:50.458Z,1.83
2018-08-11T09:48:54.110Z,2.17
2018-08-11T09:52:00.723Z,2.13
2018-08-11T09:55:05.534Z,2.03
2018-08-11T09:58:17.988Z,1.70
2018-08-11T10:01:26.844Z,1.90
2018-08-11T10:04:30.836Z,1.90
2018-08-11T10:07:34.591Z,2.03
2018-08-11T10:10:40.435Z,2.13
2018-08-11T10:13:44.032Z,1.83
2018-08-11T10:16:50.980Z,2.07
2018-08-11T10:20:00.062Z,1.80
2018-08-11T10:23:03.856Z,2.00
2018-08-11T10:26:07.729Z,6.30
2018-08-11T10:29:22.858Z,2.60
2018-08-11T10:32:26.490Z,2.13
2018-08-11T10:35:30.136Z,2.00
2018-08-11T10:38:34.478Z,2.27
2018-08-11T10:41:38.203Z,1.90
2018-08-11T10:44:42.540Z,1.77
2018-08-11T10:47:46.705Z,2.20
2018-08-11T10:50:50.336Z,1.90
2018-08-11T10:53:55.405Z,2.27
2018-08-11T10:57:00.398Z,2.07
2018-08-11T11:00:07.287Z,2.27
2018-08-11T11:03:10.885Z,2.80
2018-08-11T11:06:14.567Z,2.40
2018-08-11T11:09:19.574Z,2.23
2018-08-11T11:12:23.237Z,1.93
2018-08-11T11:15:26.856Z,2.20
2018-08-11T11:18:30.572Z,2.00
2018-08-11T11:21:34.108Z,1.67
2018-08-11T11:24:37.721Z,1.80
2018-08-11T11:27:41.545Z,2.17
2018-08-11T11:30:45.268Z,2.37
2018-08-11T11:33:48.879Z,1.90
2018-08-11T11:36:52.488Z,2.63
2018-08-11T11:39:56.105Z,1.60
2018-08-11T11:43:00.840Z,1.20
2018-08-11T11:46:05.513Z,1.37
2018-08-11T11:49:09.140Z,1.40
2018-08-11T11:52:12.824Z,1.33
2018-08-11T11:55:16.376Z,1.60
2018-08-11T11:58:20.665Z,1.10
2018-08-11T12:01:24.329Z,1.20
2018-08-11T12:04:28.761Z,1.20
2018-08-11T12:07:32.533Z,1.20
2018-08-11T12:10:36.108Z,1.20
2018-08-11T12:13:39.765Z,0.90
2018-08-11T12:16:44.549Z,1.20
2018-08-11T12:19:49.200Z,1.23
2018-08-11T12:22:53.917Z,1.57
2018-08-11T12:25:57.785Z,1.27
2018-08-11T12:29:01.421Z,1.33
2018-08-11T12:32:05.101Z,1.40
2018-08-11T12:35:08.800Z,1.30
2018-08-11T12:38:12.472Z,1.50
2018-08-11T12:41:16.111Z,1.33
2018-08-11T12:44:19.701Z,1.50
2018-08-11T12:47:23.314Z,2.20
2018-08-11T12:50:27.180Z,1.13
2018-08-11T12:53:31.031Z,0.93
2018-08-11T12:56:35.106Z,1.17
2018-08-11T12:59:39.585Z,1.30
2018-08-11T13:02:57.281Z,1.30
2018-08-11T13:06:02.350Z,1.40
2018-08-11T13:09:09.238Z,1.30
2018-08-11T13:12:12.832Z,1.40
2018-08-11T13:15:16.609Z,1.37
2018-08-11T13:18:20.333Z,1.40
2018-08-11T13:21:23.996Z,1.30
2018-08-11T13:24:34.782Z,1.57
2018-08-11T13:27:39.433Z,1.40
2018-08-11T13:30:43.044Z,1.40
2018-08-11T13:33:47.709Z,1.60
2018-08-11T13:36:58.790Z,1.37
2018-08-11T13:40:02.803Z,1.53
2018-08-11T13:43:09.618Z,1.23
2018-08-11T13:46:14.002Z,1.60
2018-08-11T13:49:19.692Z,1.63
2018-08-11T13:52:23.324Z,1.20
2018-08-11T13:55:27.644Z,1.30
2018-08-11T13:58:31.788Z,1.37
2018-08-11T14:01:35.825Z,1.50
2018-08-11T14:04:39.688Z,1.60
2018-08-11T14:07:52.914Z,1.30
2018-08-11T14:10:57.027Z,1.47
2018-08-11T14:14:00.712Z,1.40
2018-08-11T14:17:05.511Z,1.20
2018-08-11T14:20:09.935Z,1.40
2018-08-11T14:23:13.668Z,1.20
2018-08-11T14:26:23.713Z,1.57
2018-08-11T14:29:27.430Z,1.50
2018-08-11T14:32:31.632Z,1.50
2018-08-11T14:35:37.828Z,1.67
2018-08-11T14:38:41.517Z,1.30
2018-08-11T14:41:45.212Z,1.70
2018-08-11T14:44:48.844Z,1.77
2018-08-11T14:47:52.584Z,1.60
2018-08-11T14:50:56.193Z,1.50
2018-08-11T14:53:59.781Z,1.50
2018-08-11T14:57:03.512Z,1.20
2018-08-11T15:00:12.147Z,1.50
2018-08-11T15:03:15.745Z,1.70
2018-08-11T15:06:19.311Z,1.70
2018-08-11T15:09:23.062Z,1.50
2018-08-11T15:12:26.669Z,1.50
2018-08-11T15:15:31.037Z,1.63
2018-08-11T15:18:34.683Z,1.63
2018-08-11T15:21:38.281Z,1.40
2018-08-11T15:24:43.529Z,1.37
2018-08-11T15:27:49.163Z,1.87
2018-08-11T15:30:53.810Z,1.57
2018-08-11T15:37:12.327Z,1.50
2018-08-11T15:40:16.182Z,1.50
2018-08-11T15:43:20.469Z,1.80
2018-08-11T15:46:26.908Z,1.50
2018-08-11T15:49:31.300Z,1.70
2018-08-11T15:52:35.716Z,1.33
2018-08-11T15:55:45.201Z,1.57
2018-08-11T15:58:48.708Z,1.50
2018-08-11T16:01:52.216Z,1.80
2018-08-11T16:04:55.832Z,1.77
2018-08-11T16:08:00.490Z,1.50
2018-08-11T16:11:09.318Z,1.50
2018-08-11T16:14:18.092Z,1.33
2018-08-11T16:17:23.208Z,1.53
2018-08-11T16:20:26.940Z,2.13
2018-08-11T16:23:30.497Z,1.40
2018-08-11T16:26:34.007Z,1.80
2018-08-11T16:29:38.588Z,1.73
2018-08-11T16:32:42.189Z,2.20
2018-08-11T16:35:50.425Z,5.93
2018-08-11T16:38:54.707Z,1.60
2018-08-11T16:41:58.481Z,1.53
2018-08-11T16:45:03.750Z,1.60
2018-08-11T16:48:09.131Z,1.50
2018-08-11T16:51:12.700Z,1.63
2018-08-11T16:54:21.814Z,1.70
2018-08-11T16:57:25.834Z,2.00
2018-08-11T17:00:37.922Z,1.90
2018-08-11T17:03:41.597Z,2.20
2018-08-11T17:06:45.217Z,1.90
2018-08-11T17:09:49.472Z,1.63
2018-08-11T17:12:57.243Z,1.80
2018-08-11T17:16:01.864Z,1.80
2018-08-11T17:19:05.640Z,1.57
2018-08-11T17:22:09.280Z,1.60
2018-08-11T17:25:13.783Z,1.50
2018-08-11T17:28:17.446Z,1.60
2018-08-11T17:31:20.988Z,1.80
2018-08-11T17:34:24.480Z,1.70
2018-08-11T17:37:29.190Z,3.70
2018-08-11T17:40:32.920Z,3.13
2018-08-11T17:43:36.439Z,2.40
2018-08-11T17:46:41.416Z,1.80
2018-08-11T17:49:45.040Z,2.00
2018-08-11T17:52:48.611Z,2.40
2018-08-11T17:55:53.788Z,2.13
2018-08-11T17:58:57.353Z,1.80
2018-08-11T18:02:01.023Z,1.60
2018-08-11T18:05:09.241Z,1.90
2018-08-11T18:15:30.621Z,1.70
2018-08-11T18:18:36.165Z,1.77
2018-08-11T18:50:07.940Z,1.50
2018-08-11T19:00:14.511Z,1.50
2018-08-11T19:03:22.511Z,1.70
2018-08-11T19:06:26.834Z,1.43
2018-08-11T19:09:40.527Z,1.30
2018-08-11T19:12:48.300Z,1.50
2018-08-11T19:16:01.552Z,3.30
2018-08-11T19:19:10.522Z,1.60
2018-08-11T19:53:49.878Z,1.20
2018-08-11T19:57:00.556Z,1.20
2018-08-11T20:00:10.660Z,1.20
2018-08-11T20:05:17.491Z,1.30
2018-08-11T20:08:24.010Z,1.20
2018-08-11T20:11:28.758Z,1.20
2018-08-11T20:14:39.904Z,1.17
2018-08-11T20:17:47.985Z,1.87
2018-08-11T20:20:57.833Z,1.13
2018-08-11T20:24:14.401Z,1.10
2018-08-11T20:52:50.425Z,1.13
2018-08-11T20:55:59.983Z,1.00
2018-08-11T20:59:17.056Z,1.40
2018-08-11T21:09:26.297Z,7.90
2018-08-11T21:12:33.218Z,8.50
2018-08-11T21:15:38.590Z,10.53
2018-08-11T21:18:42.674Z,6.40
2018-08-11T21:21:50.382Z,8.97
2018-08-11T21:24:55.480Z,12.60
2018-08-11T21:28:02.209Z,19.17
2018-08-11T21:31:06.943Z,17.67
2018-08-11T21:34:11.165Z,12.67
2018-08-11T21:37:16.531Z,9.23
2018-08-11T21:40:24.344Z,3.20
2018-08-11T21:43:34.004Z,2.80
2018-08-11T21:46:43.036Z,3.70
2018-08-11T22:11:01.688Z,1.73
2018-08-11T22:14:17.901Z,2.37
2018-08-11T22:17:23.332Z,1.60
2018-08-11T22:20:31.126Z,1.70
2018-08-11T22:23:37.205Z,1.50
2018-08-11T22:26:43.540Z,1.30
2018-08-11T22:29:50.161Z,1.27
2018-08-11T22:32:57.260Z,1.60
2018-08-11T22:36:03.520Z,1.20
2018-08-11T22:39:12.963Z,1.37
2018-08-11T22:42:20.743Z,1.20
2018-08-11T22:45:25.665Z,1.30
2018-08-11T22:48:44.187Z,1.50
2018-08-11T22:51:52.733Z,1.20
2018-08-11T22:55:00.830Z,1.20
2018-08-11T22:58:07.585Z,1.67
2018-08-11T23:01:15.024Z,1.30
2018-08-11T23:04:21.737Z,1.53
2018-08-11T23:07:36.183Z,1.40
2018-08-11T23:10:44.160Z,1.40
2018-08-11T23:13:47.762Z,1.30
2018-08-11T23:16:52.581Z,1.33
2018-08-11T23:19:56.177Z,1.23
2018-08-11T23:22:59.879Z,1.40
2018-08-11T23:26:03.555Z,1.83
2018-08-11T23:29:07.506Z,1.80
2018-08-11T23:32:11.605Z,2.67
2018-08-11T23:35:22.933Z,1.60
2018-08-11T23:38:26.743Z,1.20
2018-08-11T23:41:31.512Z,1.53
2018-08-11T23:44:35.398Z,1.40
2018-08-11T23:47:40.560Z,1.40
2018-08-11T23:50:44.520Z,1.20
2018-08-11T23:53:49.321Z,1.30
2018-08-11T23:56:53.163Z,1.20
2018-08-11T23:59:57.049Z,1.63
